sensor_id;sensor_type;location;lat;lon;timestamp;pressure;altitude;pressure_sealevel;temperature;humidity
65276;BME280;51875;49.994;14.052;2023-08-17T00:00:38;98561.47;;;18.59;100.00
65276;BME280;51875;49.994;14.052;2023-08-17T00:02:13;98553.75;;;18.40;100.00
65276;BME280;51875;49.994;14.052;2023-08-17T00:03:29;98559.63;;;18.45;100.00
65276;BME280;51875;49.994;14.052;2023-08-17T00:04:45;98560.13;;;18.52;100.00
65276;BME280;51875;49.994;14.052;2023-08-17T00:06:00;98558.47;;;18.65;100.00
65276;BME280;51875;49.994;14.052;2023-08-17T00:07:16;98567.16;;;18.67;100.00
65276;BME280;51875;49.994;14.052;2023-08-17T00:08:31;98560.00;;;18.84;100.00
65276;BME280;51875;49.994;14.052;2023-08-17T00:09:47;98559.63;;;18.75;100.00
65276;BME280;51875;49.994;14.052;2023-08-17T00:11:03;98557.59;;;18.64;100.00
65276;BME280;51875;49.994;14.052;2023-08-17T00:12:19;98545.88;;;18.69;100.00
65276;BME280;51875;49.994;14.052;2023-08-17T00:13:35;98547.03;;;18.79;100.00
65276;BME280;51875;49.994;14.052;2023-08-17T00:14:51;98547.13;;;18.92;100.00
65276;BME280;51875;49.994;14.052;2023-08-17T00:16:07;98543.97;;;19.01;100.00
65276;BME280;51875;49.994;14.052;2023-08-17T00:17:22;98538.25;;;19.08;100.00
65276;BME280;51875;49.994;14.052;2023-08-17T00:18:38;98547.59;;;18.84;100.00
65276;BME280;51875;49.994;14.052;2023-08-17T00:19:54;98540.38;;;18.72;100.00
65276;BME280;51875;49.994;14.052;2023-08-17T00:21:09;98539.09;;;18.79;100.00
65276;BME280;51875;49.994;14.052;2023-08-17T00:22:25;98537.25;;;18.80;100.00
65276;BME280;51875;49.994;14.052;2023-08-17T00:23:41;98540.66;;;18.82;100.00
65276;BME280;51875;49.994;14.052;2023-08-17T00:24:56;98532.97;;;18.62;100.00
65276;BME280;51875;49.994;14.052;2023-08-17T00:26:12;98535.31;;;18.53;100.00
65276;BME280;51875;49.994;14.052;2023-08-17T00:27:31;98538.94;;;18.66;100.00
65276;BME280;51875;49.994;14.052;2023-08-17T00:28:47;98550.13;;;18.71;100.00
65276;BME280;51875;49.994;14.052;2023-08-17T00:30:03;98545.78;;;18.85;100.00
65276;BME280;51875;49.994;14.052;2023-08-17T00:31:18;98540.69;;;18.96;100.00
65276;BME280;51875;49.994;14.052;2023-08-17T00:32:34;98549.28;;;19.01;100.00
65276;BME280;51875;49.994;14.052;2023-08-17T00:33:50;98548.56;;;18.98;100.00
65276;BME280;51875;49.994;14.052;2023-08-17T00:35:06;98555.47;;;18.86;100.00
65276;BME280;51875;49.994;14.052;2023-08-17T00:36:21;98547.16;;;18.61;100.00
65276;BME280;51875;49.994;14.052;2023-08-17T00:37:37;98545.91;;;18.53;100.00
65276;BME280;51875;49.994;14.052;2023-08-17T00:38:53;98542.94;;;18.73;100.00
65276;BME280;51875;49.994;14.052;2023-08-17T00:40:09;98548.22;;;18.59;100.00
65276;BME280;51875;49.994;14.052;2023-08-17T00:41:24;98540.41;;;18.41;100.00
65276;BME280;51875;49.994;14.052;2023-08-17T00:42:40;98540.66;;;18.37;100.00
65276;BME280;51875;49.994;14.052;2023-08-17T00:43:56;98535.00;;;18.43;100.00
65276;BME280;51875;49.994;14.052;2023-08-17T00:45:12;98531.81;;;18.21;100.00
65276;BME280;51875;49.994;14.052;2023-08-17T00:46:27;98531.25;;;18.16;100.00
65276;BME280;51875;49.994;14.052;2023-08-17T00:47:45;98533.09;;;18.30;100.00
65276;BME280;51875;49.994;14.052;2023-08-17T00:49:01;98531.31;;;18.15;100.00
65276;BME280;51875;49.994;14.052;2023-08-17T00:50:16;98536.31;;;18.05;100.00
65276;BME280;51875;49.994;14.052;2023-08-17T00:51:33;98530.56;;;18.13;100.00
65276;BME280;51875;49.994;14.052;2023-08-17T00:52:49;98534.59;;;18.04;100.00
65276;BME280;51875;49.994;14.052;2023-08-17T00:54:06;98530.25;;;18.03;100.00
65276;BME280;51875;49.994;14.052;2023-08-17T00:55:22;98531.50;;;17.96;100.00
65276;BME280;51875;49.994;14.052;2023-08-17T00:56:38;98532.25;;;17.98;100.00
65276;BME280;51875;49.994;14.052;2023-08-17T00:57:56;98523.63;;;18.10;100.00
65276;BME280;51875;49.994;14.052;2023-08-17T00:59:12;98529.19;;;18.21;100.00
65276;BME280;51875;49.994;14.052;2023-08-17T01:00:27;98521.84;;;18.11;100.00
65276;BME280;51875;49.994;14.052;2023-08-17T01:01:43;98516.06;;;18.04;100.00
65276;BME280;51875;49.994;14.052;2023-08-17T01:02:59;98519.44;;;17.90;100.00
65276;BME280;51875;49.994;14.052;2023-08-17T01:04:14;98518.00;;;17.84;100.00
65276;BME280;51875;49.994;14.052;2023-08-17T01:05:30;98509.38;;;17.81;100.00
65276;BME280;51875;49.994;14.052;2023-08-17T01:06:48;98508.84;;;17.90;100.00
65276;BME280;51875;49.994;14.052;2023-08-17T01:08:04;98514.16;;;17.90;100.00
65276;BME280;51875;49.994;14.052;2023-08-17T01:09:19;98513.13;;;17.92;100.00
65276;BME280;51875;49.994;14.052;2023-08-17T01:12:34;98508.50;;;18.12;100.00
65276;BME280;51875;49.994;14.052;2023-08-17T01:14:05;98515.75;;;18.09;100.00
65276;BME280;51875;49.994;14.052;2023-08-17T01:15:34;98513.66;;;18.30;100.00
65276;BME280;51875;49.994;14.052;2023-08-17T01:17:05;98505.78;;;18.14;100.00
65276;BME280;51875;49.994;14.052;2023-08-17T01:18:26;98509.56;;;18.10;100.00
65276;BME280;51875;49.994;14.052;2023-08-17T01:19:44;98503.88;;;18.16;100.00
65276;BME280;51875;49.994;14.052;2023-08-17T01:21:02;98511.75;;;18.17;100.00
65276;BME280;51875;49.994;14.052;2023-08-17T01:22:21;98513.09;;;18.25;100.00
65276;BME280;51875;49.994;14.052;2023-08-17T01:23:37;98505.91;;;18.27;100.00
65276;BME280;51875;49.994;14.052;2023-08-17T01:24:56;98503.84;;;18.32;100.00
65276;BME280;51875;49.994;14.052;2023-08-17T01:26:14;98502.16;;;18.31;100.00
65276;BME280;51875;49.994;14.052;2023-08-17T01:27:45;98502.25;;;18.13;100.00
65276;BME280;51875;49.994;14.052;2023-08-17T01:29:01;98498.28;;;18.06;100.00
65276;BME280;51875;49.994;14.052;2023-08-17T01:30:18;98499.28;;;18.19;100.00
65276;BME280;51875;49.994;14.052;2023-08-17T01:32:29;98494.66;;;18.23;100.00
65276;BME280;51875;49.994;14.052;2023-08-17T01:33:26;98498.16;;;18.07;100.00
65276;BME280;51875;49.994;14.052;2023-08-17T01:34:48;98503.75;;;17.87;100.00
65276;BME280;51875;49.994;14.052;2023-08-17T01:36:11;98506.22;;;17.74;100.00
65276;BME280;51875;49.994;14.052;2023-08-17T01:37:28;98505.81;;;17.65;100.00
65276;BME280;51875;49.994;14.052;2023-08-17T01:38:47;98508.78;;;17.59;100.00
65276;BME280;51875;49.994;14.052;2023-08-17T01:40:06;98510.25;;;17.65;100.00
65276;BME280;51875;49.994;14.052;2023-08-17T01:41:23;98516.91;;;17.88;100.00
65276;BME280;51875;49.994;14.052;2023-08-17T01:42:41;98524.84;;;17.88;100.00
65276;BME280;51875;49.994;14.052;2023-08-17T01:43:58;98519.44;;;17.90;100.00
65276;BME280;51875;49.994;14.052;2023-08-17T01:45:15;98523.22;;;17.86;100.00
65276;BME280;51875;49.994;14.052;2023-08-17T01:46:33;98524.66;;;17.91;100.00
65276;BME280;51875;49.994;14.052;2023-08-17T01:47:49;98520.16;;;17.77;100.00
65276;BME280;51875;49.994;14.052;2023-08-17T01:49:05;98516.41;;;17.82;100.00
65276;BME280;51875;49.994;14.052;2023-08-17T01:50:20;98519.97;;;17.97;100.00
65276;BME280;51875;49.994;14.052;2023-08-17T01:51:36;98522.28;;;17.87;100.00
65276;BME280;51875;49.994;14.052;2023-08-17T01:52:51;98527.22;;;17.93;100.00
65276;BME280;51875;49.994;14.052;2023-08-17T01:54:07;98522.97;;;17.90;100.00
65276;BME280;51875;49.994;14.052;2023-08-17T01:55:23;98525.88;;;17.70;100.00
65276;BME280;51875;49.994;14.052;2023-08-17T01:56:39;98520.84;;;17.65;100.00
65276;BME280;51875;49.994;14.052;2023-08-17T01:57:55;98521.00;;;17.62;100.00
65276;BME280;51875;49.994;14.052;2023-08-17T01:59:10;98513.22;;;17.43;100.00
65276;BME280;51875;49.994;14.052;2023-08-17T02:00:26;98518.09;;;17.34;100.00
65276;BME280;51875;49.994;14.052;2023-08-17T02:01:41;98513.66;;;17.35;100.00
65276;BME280;51875;49.994;14.052;2023-08-17T02:02:57;98506.91;;;17.45;100.00
65276;BME280;51875;49.994;14.052;2023-08-17T02:04:12;98498.69;;;17.66;100.00
65276;BME280;51875;49.994;14.052;2023-08-17T02:05:28;98495.47;;;17.61;100.00
65276;BME280;51875;49.994;14.052;2023-08-17T02:06:44;98493.34;;;17.51;100.00
65276;BME280;51875;49.994;14.052;2023-08-17T02:07:59;98490.19;;;17.45;100.00
65276;BME280;51875;49.994;14.052;2023-08-17T02:09:15;98485.66;;;17.31;100.00
65276;BME280;51875;49.994;14.052;2023-08-17T02:10:31;98487.00;;;17.38;100.00
65276;BME280;51875;49.994;14.052;2023-08-17T02:11:46;98488.97;;;17.50;100.00
65276;BME280;51875;49.994;14.052;2023-08-17T02:13:02;98489.06;;;17.65;100.00
65276;BME280;51875;49.994;14.052;2023-08-17T02:14:17;98487.78;;;17.88;100.00
65276;BME280;51875;49.994;14.052;2023-08-17T02:15:38;98489.50;;;17.57;100.00
65276;BME280;51875;49.994;14.052;2023-08-17T02:16:54;98485.66;;;17.31;100.00
65276;BME280;51875;49.994;14.052;2023-08-17T02:18:10;98498.31;;;17.26;100.00
65276;BME280;51875;49.994;14.052;2023-08-17T02:19:25;98489.84;;;17.35;100.00
65276;BME280;51875;49.994;14.052;2023-08-17T02:20:41;98489.59;;;17.40;100.00
65276;BME280;51875;49.994;14.052;2023-08-17T02:21:57;98484.81;;;17.62;100.00
65276;BME280;51875;49.994;14.052;2023-08-17T02:23:12;98489.91;;;17.82;100.00
65276;BME280;51875;49.994;14.052;2023-08-17T02:24:28;98486.84;;;17.89;100.00
65276;BME280;51875;49.994;14.052;2023-08-17T02:25:43;98494.41;;;17.96;100.00
65276;BME280;51875;49.994;14.052;2023-08-17T02:26:59;98489.13;;;17.96;100.00
65276;BME280;51875;49.994;14.052;2023-08-17T02:28:15;98491.13;;;17.76;100.00
65276;BME280;51875;49.994;14.052;2023-08-17T02:29:30;98489.81;;;17.83;100.00
65276;BME280;51875;49.994;14.052;2023-08-17T02:30:46;98494.78;;;17.89;100.00
65276;BME280;51875;49.994;14.052;2023-08-17T02:32:03;98485.03;;;17.74;100.00
65276;BME280;51875;49.994;14.052;2023-08-17T02:33:19;98483.00;;;17.79;100.00
65276;BME280;51875;49.994;14.052;2023-08-17T02:34:35;98482.88;;;17.81;100.00
65276;BME280;51875;49.994;14.052;2023-08-17T02:35:51;98485.13;;;17.72;100.00
65276;BME280;51875;49.994;14.052;2023-08-17T02:37:06;98484.97;;;17.75;100.00
65276;BME280;51875;49.994;14.052;2023-08-17T02:38:22;98480.34;;;17.79;100.00
65276;BME280;51875;49.994;14.052;2023-08-17T02:39:37;98484.13;;;17.75;100.00
65276;BME280;51875;49.994;14.052;2023-08-17T02:40:53;98481.38;;;17.76;100.00
65276;BME280;51875;49.994;14.052;2023-08-17T02:42:09;98483.75;;;17.81;100.00
65276;BME280;51875;49.994;14.052;2023-08-17T02:43:24;98478.81;;;17.75;100.00
65276;BME280;51875;49.994;14.052;2023-08-17T02:44:40;98480.09;;;17.68;100.00
65276;BME280;51875;49.994;14.052;2023-08-17T02:45:55;98486.59;;;17.78;100.00
65276;BME280;51875;49.994;14.052;2023-08-17T02:47:11;98490.47;;;17.40;100.00
65276;BME280;51875;49.994;14.052;2023-08-17T02:48:27;98490.78;;;17.50;100.00
65276;BME280;51875;49.994;14.052;2023-08-17T02:49:42;98496.41;;;17.60;100.00
65276;BME280;51875;49.994;14.052;2023-08-17T02:50:58;98487.28;;;17.65;100.00
65276;BME280;51875;49.994;14.052;2023-08-17T02:52:14;98497.44;;;17.73;100.00
65276;BME280;51875;49.994;14.052;2023-08-17T02:53:29;98493.25;;;17.69;100.00
65276;BME280;51875;49.994;14.052;2023-08-17T02:54:45;98495.63;;;17.74;100.00
65276;BME280;51875;49.994;14.052;2023-08-17T02:56:00;98504.34;;;17.76;100.00
65276;BME280;51875;49.994;14.052;2023-08-17T02:57:16;98506.06;;;17.77;100.00
65276;BME280;51875;49.994;14.052;2023-08-17T02:58:32;98511.53;;;17.58;100.00
65276;BME280;51875;49.994;14.052;2023-08-17T02:59:48;98504.44;;;17.42;100.00
65276;BME280;51875;49.994;14.052;2023-08-17T03:01:04;98497.31;;;17.11;100.00
65276;BME280;51875;49.994;14.052;2023-08-17T03:02:19;98507.66;;;17.15;100.00
65276;BME280;51875;49.994;14.052;2023-08-17T03:03:35;98501.97;;;17.23;100.00
65276;BME280;51875;49.994;14.052;2023-08-17T03:04:51;98504.44;;;17.26;100.00
65276;BME280;51875;49.994;14.052;2023-08-17T03:06:07;98508.34;;;17.35;100.00
65276;BME280;51875;49.994;14.052;2023-08-17T03:07:23;98506.84;;;17.47;100.00
65276;BME280;51875;49.994;14.052;2023-08-17T03:08:39;98503.41;;;17.45;100.00
65276;BME280;51875;49.994;14.052;2023-08-17T03:09:54;98506.06;;;17.45;100.00
65276;BME280;51875;49.994;14.052;2023-08-17T03:11:11;98512.63;;;17.38;100.00
65276;BME280;51875;49.994;14.052;2023-08-17T03:12:27;98506.47;;;17.21;100.00
65276;BME280;51875;49.994;14.052;2023-08-17T03:13:43;98513.47;;;17.22;100.00
65276;BME280;51875;49.994;14.052;2023-08-17T03:14:58;98502.13;;;16.86;100.00
65276;BME280;51875;49.994;14.052;2023-08-17T03:16:14;98508.00;;;16.91;100.00
65276;BME280;51875;49.994;14.052;2023-08-17T03:17:30;98507.06;;;16.92;100.00
65276;BME280;51875;49.994;14.052;2023-08-17T03:18:46;98504.53;;;16.91;100.00
65276;BME280;51875;49.994;14.052;2023-08-17T03:20:03;98505.59;;;17.04;100.00
65276;BME280;51875;49.994;14.052;2023-08-17T03:21:22;98499.81;;;16.96;100.00
65276;BME280;51875;49.994;14.052;2023-08-17T03:22:38;98506.72;;;17.16;100.00
65276;BME280;51875;49.994;14.052;2023-08-17T03:23:53;98505.78;;;17.17;100.00
65276;BME280;51875;49.994;14.052;2023-08-17T03:25:10;98508.72;;;17.29;100.00
65276;BME280;51875;49.994;14.052;2023-08-17T03:26:26;98508.09;;;17.23;100.00
65276;BME280;51875;49.994;14.052;2023-08-17T03:27:41;98505.78;;;17.17;100.00
65276;BME280;51875;49.994;14.052;2023-08-17T03:28:57;98517.56;;;17.12;100.00
65276;BME280;51875;49.994;14.052;2023-08-17T03:30:12;98517.03;;;17.05;100.00
65276;BME280;51875;49.994;14.052;2023-08-17T03:31:28;98517.31;;;17.16;100.00
65276;BME280;51875;49.994;14.052;2023-08-17T03:32:44;98513.81;;;17.32;100.00
65276;BME280;51875;49.994;14.052;2023-08-17T03:33:59;98518.78;;;17.38;100.00
65276;BME280;51875;49.994;14.052;2023-08-17T03:35:15;98523.53;;;17.31;100.00
65276;BME280;51875;49.994;14.052;2023-08-17T03:36:31;98519.44;;;17.10;100.00
65276;BME280;51875;49.994;14.052;2023-08-17T03:37:47;98524.78;;;17.08;100.00
65276;BME280;51875;49.994;14.052;2023-08-17T03:39:02;98532.44;;;16.79;100.00
65276;BME280;51875;49.994;14.052;2023-08-17T03:40:18;98528.56;;;16.86;100.00
65276;BME280;51875;49.994;14.052;2023-08-17T03:41:33;98522.56;;;17.00;100.00
65276;BME280;51875;49.994;14.052;2023-08-17T03:42:52;98520.53;;;17.05;100.00
65276;BME280;51875;49.994;14.052;2023-08-17T03:44:10;98524.25;;;17.01;100.00
65276;BME280;51875;49.994;14.052;2023-08-17T03:45:25;98519.19;;;16.97;100.00
65276;BME280;51875;49.994;14.052;2023-08-17T03:46:41;98517.56;;;16.94;100.00
65276;BME280;51875;49.994;14.052;2023-08-17T03:47:57;98516.44;;;17.00;100.00
65276;BME280;51875;49.994;14.052;2023-08-17T03:49:12;98522.25;;;17.06;100.00
65276;BME280;51875;49.994;14.052;2023-08-17T03:50:28;98521.13;;;17.11;100.00
65276;BME280;51875;49.994;14.052;2023-08-17T03:51:44;98520.38;;;16.91;100.00
65276;BME280;51875;49.994;14.052;2023-08-17T03:52:59;98525.19;;;17.00;100.00
65276;BME280;51875;49.994;14.052;2023-08-17T03:54:15;98521.75;;;16.98;100.00
65276;BME280;51875;49.994;14.052;2023-08-17T03:55:30;98518.94;;;17.19;100.00
65276;BME280;51875;49.994;14.052;2023-08-17T03:56:46;98523.78;;;17.11;100.00
65276;BME280;51875;49.994;14.052;2023-08-17T03:58:02;98516.97;;;17.06;100.00
65276;BME280;51875;49.994;14.052;2023-08-17T03:59:17;98520.69;;;17.02;100.00
65276;BME280;51875;49.994;14.052;2023-08-17T04:00:33;98521.31;;;17.23;100.00
65276;BME280;51875;49.994;14.052;2023-08-17T04:01:50;98520.13;;;17.29;100.00
65276;BME280;51875;49.994;14.052;2023-08-17T04:03:06;98530.06;;;17.26;100.00
65276;BME280;51875;49.994;14.052;2023-08-17T04:04:22;98522.19;;;17.24;100.00
65276;BME280;51875;49.994;14.052;2023-08-17T04:05:37;98529.44;;;17.20;100.00
65276;BME280;51875;49.994;14.052;2023-08-17T04:06:53;98526.38;;;17.28;100.00
65276;BME280;51875;49.994;14.052;2023-08-17T04:08:09;98530.81;;;17.28;100.00
65276;BME280;51875;49.994;14.052;2023-08-17T04:09:24;98531.41;;;17.33;100.00
65276;BME280;51875;49.994;14.052;2023-08-17T04:10:40;98532.59;;;17.27;100.00
65276;BME280;51875;49.994;14.052;2023-08-17T04:11:56;98531.56;;;16.96;100.00
65276;BME280;51875;49.994;14.052;2023-08-17T04:13:12;98532.53;;;16.77;100.00
65276;BME280;51875;49.994;14.052;2023-08-17T04:14:28;98528.72;;;16.65;100.00
65276;BME280;51875;49.994;14.052;2023-08-17T04:15:43;98533.63;;;16.73;100.00
65276;BME280;51875;49.994;14.052;2023-08-17T04:16:59;98531.28;;;16.85;100.00
65276;BME280;51875;49.994;14.052;2023-08-17T04:18:15;98529.56;;;17.01;100.00
65276;BME280;51875;49.994;14.052;2023-08-17T04:19:30;98537.69;;;16.97;100.00
65276;BME280;51875;49.994;14.052;2023-08-17T04:20:46;98537.53;;;17.17;100.00
65276;BME280;51875;49.994;14.052;2023-08-17T04:22:02;98542.13;;;17.14;100.00
65276;BME280;51875;49.994;14.052;2023-08-17T04:23:17;98551.00;;;16.95;100.00
65276;BME280;51875;49.994;14.052;2023-08-17T04:24:33;98549.06;;;17.16;100.00
65276;BME280;51875;49.994;14.052;2023-08-17T04:25:49;98557.88;;;16.99;100.00
65276;BME280;51875;49.994;14.052;2023-08-17T04:27:04;98557.81;;;16.65;100.00
65276;BME280;51875;49.994;14.052;2023-08-17T04:28:20;98558.34;;;16.72;100.00
65276;BME280;51875;49.994;14.052;2023-08-17T04:29:37;98563.53;;;16.91;100.00
65276;BME280;51875;49.994;14.052;2023-08-17T04:30:53;98558.31;;;16.90;100.00
65276;BME280;51875;49.994;14.052;2023-08-17T04:32:13;98554.94;;;17.05;100.00
65276;BME280;51875;49.994;14.052;2023-08-17T04:33:29;98559.88;;;17.12;100.00
65276;BME280;51875;49.994;14.052;2023-08-17T04:34:45;98557.28;;;17.28;100.00
65276;BME280;51875;49.994;14.052;2023-08-17T04:36:01;98561.28;;;17.35;100.00
65276;BME280;51875;49.994;14.052;2023-08-17T04:37:17;98560.19;;;17.39;100.00
65276;BME280;51875;49.994;14.052;2023-08-17T04:38:32;98556.44;;;17.43;100.00
65276;BME280;51875;49.994;14.052;2023-08-17T04:39:48;98556.22;;;17.30;100.00
65276;BME280;51875;49.994;14.052;2023-08-17T04:41:04;98556.47;;;17.10;100.00
65276;BME280;51875;49.994;14.052;2023-08-17T04:42:20;98560.34;;;17.20;100.00
65276;BME280;51875;49.994;14.052;2023-08-17T04:43:35;98555.72;;;17.23;100.00
65276;BME280;51875;49.994;14.052;2023-08-17T04:44:51;98559.00;;;17.11;100.00
65276;BME280;51875;49.994;14.052;2023-08-17T04:46:06;98556.34;;;17.29;100.00
65276;BME280;51875;49.994;14.052;2023-08-17T04:47:22;98558.13;;;17.28;100.00
65276;BME280;51875;49.994;14.052;2023-08-17T04:48:38;98559.50;;;17.35;100.00
65276;BME280;51875;49.994;14.052;2023-08-17T04:49:53;98559.84;;;17.45;100.00
65276;BME280;51875;49.994;14.052;2023-08-17T04:51:09;98563.50;;;17.43;100.00
65276;BME280;51875;49.994;14.052;2023-08-17T04:52:24;98573.63;;;17.52;100.00
65276;BME280;51875;49.994;14.052;2023-08-17T04:53:40;98564.97;;;17.48;100.00
65276;BME280;51875;49.994;14.052;2023-08-17T04:54:56;98565.59;;;17.54;100.00
65276;BME280;51875;49.994;14.052;2023-08-17T04:56:11;98563.47;;;17.60;100.00
65276;BME280;51875;49.994;14.052;2023-08-17T04:57:27;98554.50;;;17.47;100.00
65276;BME280;51875;49.994;14.052;2023-08-17T04:58:43;98547.66;;;17.09;100.00
65276;BME280;51875;49.994;14.052;2023-08-17T04:59:58;98561.38;;;17.33;100.00
65276;BME280;51875;49.994;14.052;2023-08-17T05:01:14;98561.13;;;17.38;100.00
65276;BME280;51875;49.994;14.052;2023-08-17T05:02:30;98567.66;;;17.64;100.00
65276;BME280;51875;49.994;14.052;2023-08-17T05:03:46;98567.28;;;17.71;100.00
65276;BME280;51875;49.994;14.052;2023-08-17T05:05:05;98565.94;;;17.63;100.00
65276;BME280;51875;49.994;14.052;2023-08-17T05:06:21;98565.09;;;17.79;100.00
65276;BME280;51875;49.994;14.052;2023-08-17T05:07:37;98574.31;;;17.88;100.00
65276;BME280;51875;49.994;14.052;2023-08-17T05:08:52;98574.38;;;17.86;100.00
65276;BME280;51875;49.994;14.052;2023-08-17T05:10:08;98578.81;;;18.02;100.00
65276;BME280;51875;49.994;14.052;2023-08-17T05:11:24;98571.66;;;17.88;100.00
65276;BME280;51875;49.994;14.052;2023-08-17T05:12:40;98572.28;;;17.77;100.00
65276;BME280;51875;49.994;14.052;2023-08-17T05:13:55;98576.94;;;17.72;100.00
65276;BME280;51875;49.994;14.052;2023-08-17T05:15:11;98571.06;;;17.67;100.00
65276;BME280;51875;49.994;14.052;2023-08-17T05:16:26;98565.75;;;17.67;100.00
65276;BME280;51875;49.994;14.052;2023-08-17T05:17:42;98572.53;;;17.88;100.00
65276;BME280;51875;49.994;14.052;2023-08-17T05:18:58;98569.97;;;17.87;100.00
65276;BME280;51875;49.994;14.052;2023-08-17T05:20:14;98574.91;;;18.09;100.00
65276;BME280;51875;49.994;14.052;2023-08-17T05:21:30;98576.13;;;18.19;100.00
65276;BME280;51875;49.994;14.052;2023-08-17T05:22:47;98579.00;;;17.99;100.00
65276;BME280;51875;49.994;14.052;2023-08-17T05:24:02;98582.94;;;18.07;100.00
65276;BME280;51875;49.994;14.052;2023-08-17T05:25:18;98581.38;;;17.87;100.00
65276;BME280;51875;49.994;14.052;2023-08-17T05:26:33;98589.38;;;18.03;100.00
65276;BME280;51875;49.994;14.052;2023-08-17T05:27:49;98588.06;;;17.95;100.00
65276;BME280;51875;49.994;14.052;2023-08-17T05:29:05;98593.09;;;17.99;100.00
65276;BME280;51875;49.994;14.052;2023-08-17T05:30:21;98595.53;;;18.04;100.00
65276;BME280;51875;49.994;14.052;2023-08-17T05:31:36;98594.47;;;17.90;100.00
65276;BME280;51875;49.994;14.052;2023-08-17T05:32:52;98595.41;;;17.89;100.00
65276;BME280;51875;49.994;14.052;2023-08-17T05:34:08;98605.00;;;18.08;100.00
65276;BME280;51875;49.994;14.052;2023-08-17T05:35:23;98599.78;;;18.23;100.00
65276;BME280;51875;49.994;14.052;2023-08-17T05:36:39;98600.97;;;18.33;100.00
65276;BME280;51875;49.994;14.052;2023-08-17T05:37:54;98594.00;;;18.46;100.00
65276;BME280;51875;49.994;14.052;2023-08-17T05:39:10;98602.47;;;18.53;100.00
65276;BME280;51875;49.994;14.052;2023-08-17T05:40:26;98594.25;;;18.58;100.00
65276;BME280;51875;49.994;14.052;2023-08-17T05:41:41;98601.41;;;18.56;100.00
65276;BME280;51875;49.994;14.052;2023-08-17T05:42:57;98593.19;;;18.60;100.00
65276;BME280;51875;49.994;14.052;2023-08-17T05:44:12;98596.59;;;18.62;100.00
65276;BME280;51875;49.994;14.052;2023-08-17T05:45:30;98591.34;;;18.77;100.00
65276;BME280;51875;49.994;14.052;2023-08-17T05:46:45;98594.47;;;18.84;100.00
65276;BME280;51875;49.994;14.052;2023-08-17T05:48:01;98590.53;;;18.91;100.00
65276;BME280;51875;49.994;14.052;2023-08-17T05:49:17;98589.59;;;18.92;100.00
65276;BME280;51875;49.994;14.052;2023-08-17T05:50:32;98587.16;;;19.03;100.00
65276;BME280;51875;49.994;14.052;2023-08-17T05:51:48;98583.78;;;19.16;100.00
65276;BME280;51875;49.994;14.052;2023-08-17T05:53:03;98579.31;;;19.16;100.00
65276;BME280;51875;49.994;14.052;2023-08-17T05:54:19;98569.16;;;19.23;100.00
65276;BME280;51875;49.994;14.052;2023-08-17T05:55:34;98564.25;;;19.31;100.00
65276;BME280;51875;49.994;14.052;2023-08-17T05:56:50;98564.44;;;19.43;100.00
65276;BME280;51875;49.994;14.052;2023-08-17T05:58:06;98567.34;;;19.53;100.00
65276;BME280;51875;49.994;14.052;2023-08-17T05:59:21;98558.97;;;19.59;100.00
65276;BME280;51875;49.994;14.052;2023-08-17T06:00:37;98556.22;;;19.75;100.00
65276;BME280;51875;49.994;14.052;2023-08-17T06:01:53;98554.84;;;19.82;100.00
65276;BME280;51875;49.994;14.052;2023-08-17T06:03:09;98557.81;;;19.92;100.00
65276;BME280;51875;49.994;14.052;2023-08-17T06:04:24;98564.88;;;20.06;100.00
65276;BME280;51875;49.994;14.052;2023-08-17T06:05:42;98560.53;;;20.05;100.00
65276;BME280;51875;49.994;14.052;2023-08-17T06:06:57;98564.28;;;20.15;100.00
65276;BME280;51875;49.994;14.052;2023-08-17T06:08:13;98574.06;;;20.15;100.00
65276;BME280;51875;49.994;14.052;2023-08-17T06:09:29;98562.75;;;20.26;100.00
65276;BME280;51875;49.994;14.052;2023-08-17T06:10:44;98559.47;;;20.08;100.00
65276;BME280;51875;49.994;14.052;2023-08-17T06:12:00;98566.38;;;20.10;100.00
65276;BME280;51875;49.994;14.052;2023-08-17T06:13:15;98561.38;;;20.06;100.00
65276;BME280;51875;49.994;14.052;2023-08-17T06:14:32;98567.19;;;20.25;100.00
65276;BME280;51875;49.994;14.052;2023-08-17T06:15:48;98563.28;;;20.44;100.00
65276;BME280;51875;49.994;14.052;2023-08-17T06:17:04;98568.72;;;20.42;100.00
65276;BME280;51875;49.994;14.052;2023-08-17T06:18:19;98562.59;;;20.55;100.00
65276;BME280;51875;49.994;14.052;2023-08-17T06:19:36;98570.25;;;20.59;100.00
65276;BME280;51875;49.994;14.052;2023-08-17T06:20:51;98559.41;;;20.63;100.00
65276;BME280;51875;49.994;14.052;2023-08-17T06:22:08;98554.63;;;20.55;100.00
65276;BME280;51875;49.994;14.052;2023-08-17T06:23:24;98562.50;;;20.69;100.00
65276;BME280;51875;49.994;14.052;2023-08-17T06:24:40;98561.25;;;20.75;100.00
65276;BME280;51875;49.994;14.052;2023-08-17T06:25:59;98563.72;;;20.91;100.00
65276;BME280;51875;49.994;14.052;2023-08-17T06:27:15;98566.50;;;21.02;100.00
65276;BME280;51875;49.994;14.052;2023-08-17T06:28:31;98565.22;;;21.08;100.00
65276;BME280;51875;49.994;14.052;2023-08-17T06:29:46;98563.19;;;21.12;100.00
65276;BME280;51875;49.994;14.052;2023-08-17T06:31:02;98564.03;;;21.12;100.00
65276;BME280;51875;49.994;14.052;2023-08-17T06:32:17;98563.94;;;21.14;100.00
65276;BME280;51875;49.994;14.052;2023-08-17T06:33:33;98562.75;;;21.31;100.00
65276;BME280;51875;49.994;14.052;2023-08-17T06:34:49;98562.41;;;21.36;100.00
65276;BME280;51875;49.994;14.052;2023-08-17T06:36:04;98557.09;;;21.49;100.00